sensor_id;sensor_type;location;lat;lon;timestamp;P1;durP1;ratioP1;P2;durP2;ratioP2
59766;SDS011;46248;58.364;25.582;2023-01-08T00:01:26;7.32;;;2.50;;
59766;SDS011;46248;58.364;25.582;2023-01-08T00:04:48;6.45;;;2.92;;
59766;SDS011;46248;58.364;25.582;2023-01-08T00:08:09;5.90;;;2.55;;
59766;SDS011;46248;58.364;25.582;2023-01-08T00:11:31;4.65;;;2.42;;
59766;SDS011;46248;58.364;25.582;2023-01-08T00:14:55;12.98;;;2.33;;
59766;SDS011;46248;58.364;25.582;2023-01-08T00:18:17;8.90;;;3.05;;
59766;SDS011;46248;58.364;25.582;2023-01-08T00:21:39;6.00;;;2.65;;
59766;SDS011;46248;58.364;25.582;2023-01-08T00:25:00;6.28;;;2.50;;
59766;SDS011;46248;58.364;25.582;2023-01-08T00:28:22;6.93;;;2.42;;
59766;SDS011;46248;58.364;25.582;2023-01-08T00:31:45;4.93;;;2.05;;
59766;SDS011;46248;58.364;25.582;2023-01-08T00:35:07;9.80;;;2.63;;
59766;SDS011;46248;58.364;25.582;2023-01-08T00:38:29;7.93;;;2.80;;
59766;SDS011;46248;58.364;25.582;2023-01-08T00:41:51;6.97;;;3.40;;
59766;SDS011;46248;58.364;25.582;2023-01-08T00:45:13;6.03;;;2.03;;
59766;SDS011;46248;58.364;25.582;2023-01-08T00:48:36;3.28;;;1.75;;
59766;SDS011;46248;58.364;25.582;2023-01-08T00:51:59;7.03;;;2.67;;
59766;SDS011;46248;58.364;25.582;2023-01-08T00:55:20;6.13;;;2.35;;
59766;SDS011;46248;58.364;25.582;2023-01-08T00:58:42;5.30;;;2.35;;
59766;SDS011;46248;58.364;25.582;2023-01-08T01:02:04;7.72;;;2.83;;
59766;SDS011;46248;58.364;25.582;2023-01-08T01:05:27;7.78;;;3.00;;
59766;SDS011;46248;58.364;25.582;2023-01-08T01:08:50;5.03;;;2.70;;
59766;SDS011;46248;58.364;25.582;2023-01-08T01:12:12;6.90;;;2.58;;
59766;SDS011;46248;58.364;25.582;2023-01-08T01:15:34;6.45;;;1.92;;
59766;SDS011;46248;58.364;25.582;2023-01-08T01:18:56;9.52;;;3.15;;
59766;SDS011;46248;58.364;25.582;2023-01-08T01:22:19;7.90;;;2.08;;
59766;SDS011;46248;58.364;25.582;2023-01-08T01:25:41;6.53;;;2.53;;
59766;SDS011;46248;58.364;25.582;2023-01-08T01:29:04;5.50;;;2.53;;
59766;SDS011;46248;58.364;25.582;2023-01-08T01:32:26;8.55;;;3.13;;
59766;SDS011;46248;58.364;25.582;2023-01-08T01:35:48;4.13;;;2.20;;
59766;SDS011;46248;58.364;25.582;2023-01-08T01:39:21;5.18;;;2.50;;
59766;SDS011;46248;58.364;25.582;2023-01-08T01:42:43;6.93;;;2.10;;
59766;SDS011;46248;58.364;25.582;2023-01-08T01:46:21;6.57;;;2.55;;
59766;SDS011;46248;58.364;25.582;2023-01-08T01:49:49;3.33;;;2.28;;
59766;SDS011;46248;58.364;25.582;2023-01-08T01:53:20;9.23;;;2.90;;
59766;SDS011;46248;58.364;25.582;2023-01-08T01:56:46;9.05;;;2.45;;
59766;SDS011;46248;58.364;25.582;2023-01-08T02:00:09;6.18;;;2.50;;
59766;SDS011;46248;58.364;25.582;2023-01-08T02:03:33;4.57;;;2.53;;
59766;SDS011;46248;58.364;25.582;2023-01-08T02:06:58;4.82;;;3.13;;
59766;SDS011;46248;58.364;25.582;2023-01-08T02:10:27;6.10;;;2.67;;
59766;SDS011;46248;58.364;25.582;2023-01-08T02:13:59;5.25;;;2.70;;
59766;SDS011;46248;58.364;25.582;2023-01-08T02:17:30;8.02;;;2.95;;
59766;SDS011;46248;58.364;25.582;2023-01-08T02:20:57;5.78;;;2.88;;
59766;SDS011;46248;58.364;25.582;2023-01-08T02:24:26;3.47;;;2.03;;
59766;SDS011;46248;58.364;25.582;2023-01-08T02:28:00;5.70;;;3.00;;
59766;SDS011;46248;58.364;25.582;2023-01-08T02:31:25;9.23;;;3.97;;
59766;SDS011;46248;58.364;25.582;2023-01-08T02:34:49;6.07;;;2.60;;
59766;SDS011;46248;58.364;25.582;2023-01-08T02:38:12;5.30;;;2.10;;
59766;SDS011;46248;58.364;25.582;2023-01-08T02:41:39;6.43;;;3.08;;
59766;SDS011;46248;58.364;25.582;2023-01-08T02:45:12;13.02;;;3.33;;
59766;SDS011;46248;58.364;25.582;2023-01-08T02:48:44;6.72;;;2.83;;
59766;SDS011;46248;58.364;25.582;2023-01-08T02:52:09;8.80;;;3.60;;
59766;SDS011;46248;58.364;25.582;2023-01-08T02:55:34;8.90;;;3.85;;
59766;SDS011;46248;58.364;25.582;2023-01-08T02:58:58;9.20;;;3.33;;
59766;SDS011;46248;58.364;25.582;2023-01-08T03:02:23;5.82;;;3.10;;
59766;SDS011;46248;58.364;25.582;2023-01-08T03:05:47;9.50;;;4.18;;
59766;SDS011;46248;58.364;25.582;2023-01-08T03:09:12;9.25;;;2.88;;
59766;SDS011;46248;58.364;25.582;2023-01-08T03:12:39;8.68;;;4.22;;
59766;SDS011;46248;58.364;25.582;2023-01-08T03:16:07;11.63;;;3.30;;
59766;SDS011;46248;58.364;25.582;2023-01-08T03:19:34;5.85;;;3.05;;
59766;SDS011;46248;58.364;25.582;2023-01-08T03:23:00;9.65;;;4.10;;
59766;SDS011;46248;58.364;25.582;2023-01-08T03:26:26;6.47;;;3.45;;
59766;SDS011;46248;58.364;25.582;2023-01-08T03:29:50;8.20;;;3.88;;
59766;SDS011;46248;58.364;25.582;2023-01-08T03:33:15;7.35;;;3.08;;
59766;SDS011;46248;58.364;25.582;2023-01-08T03:36:40;8.48;;;3.55;;
59766;SDS011;46248;58.364;25.582;2023-01-08T03:40:06;6.75;;;4.00;;
59766;SDS011;46248;58.364;25.582;2023-01-08T03:43:33;8.20;;;3.65;;
59766;SDS011;46248;58.364;25.582;2023-01-08T03:46:55;10.05;;;4.07;;
59766;SDS011;46248;58.364;25.582;2023-01-08T03:50:18;6.22;;;3.80;;
59766;SDS011;46248;58.364;25.582;2023-01-08T03:53:45;7.82;;;4.22;;
59766;SDS011;46248;58.364;25.582;2023-01-08T03:57:08;7.47;;;3.40;;
59766;SDS011;46248;58.364;25.582;2023-01-08T04:00:30;13.90;;;3.47;;
59766;SDS011;46248;58.364;25.582;2023-01-08T04:03:52;5.53;;;3.67;;
59766;SDS011;46248;58.364;25.582;2023-01-08T04:07:15;8.23;;;3.42;;
59766;SDS011;46248;58.364;25.582;2023-01-08T04:10:38;9.48;;;2.78;;
59766;SDS011;46248;58.364;25.582;2023-01-08T04:14:00;8.00;;;3.35;;
59766;SDS011;46248;58.364;25.582;2023-01-08T04:17:22;12.50;;;3.88;;
59766;SDS011;46248;58.364;25.582;2023-01-08T04:20:44;10.27;;;3.25;;
59766;SDS011;46248;58.364;25.582;2023-01-08T04:24:07;10.82;;;3.80;;
59766;SDS011;46248;58.364;25.582;2023-01-08T04:27:30;7.75;;;4.07;;
59766;SDS011;46248;58.364;25.582;2023-01-08T04:30:52;6.63;;;3.65;;
59766;SDS011;46248;58.364;25.582;2023-01-08T04:34:14;10.52;;;3.85;;
59766;SDS011;46248;58.364;25.582;2023-01-08T04:37:36;7.00;;;3.08;;
59766;SDS011;46248;58.364;25.582;2023-01-08T04:40:58;11.50;;;4.82;;
59766;SDS011;46248;58.364;25.582;2023-01-08T04:44:22;11.65;;;4.32;;
59766;SDS011;46248;58.364;25.582;2023-01-08T04:47:44;8.57;;;3.00;;
59766;SDS011;46248;58.364;25.582;2023-01-08T04:51:06;10.20;;;4.00;;
59766;SDS011;46248;58.364;25.582;2023-01-08T04:54:28;8.77;;;3.70;;
59766;SDS011;46248;58.364;25.582;2023-01-08T04:57:50;5.78;;;4.13;;
59766;SDS011;46248;58.364;25.582;2023-01-08T05:01:15;9.80;;;4.07;;
59766;SDS011;46248;58.364;25.582;2023-01-08T05:04:40;8.20;;;3.43;;
59766;SDS011;46248;58.364;25.582;2023-01-08T05:08:02;14.95;;;4.38;;
59766;SDS011;46248;58.364;25.582;2023-01-08T05:11:24;9.18;;;4.68;;
59766;SDS011;46248;58.364;25.582;2023-01-08T05:14:46;15.32;;;5.75;;
59766;SDS011;46248;58.364;25.582;2023-01-08T05:18:09;10.60;;;4.18;;
59766;SDS011;46248;58.364;25.582;2023-01-08T05:21:31;8.85;;;3.55;;
59766;SDS011;46248;58.364;25.582;2023-01-08T05:24:53;7.50;;;3.05;;
59766;SDS011;46248;58.364;25.582;2023-01-08T05:28:15;9.15;;;4.22;;
59766;SDS011;46248;58.364;25.582;2023-01-08T05:31:37;8.23;;;3.35;;
59766;SDS011;46248;58.364;25.582;2023-01-08T05:35:00;10.63;;;4.35;;
59766;SDS011;46248;58.364;25.582;2023-01-08T05:38:22;10.77;;;3.40;;
59766;SDS011;46248;58.364;25.582;2023-01-08T05:41:43;8.10;;;3.83;;
59766;SDS011;46248;58.364;25.582;2023-01-08T05:45:06;12.20;;;5.15;;
59766;SDS011;46248;58.364;25.582;2023-01-08T05:48:29;7.75;;;3.92;;
59766;SDS011;46248;58.364;25.582;2023-01-08T05:51:54;8.93;;;4.07;;
59766;SDS011;46248;58.364;25.582;2023-01-08T05:55:16;8.55;;;4.30;;
59766;SDS011;46248;58.364;25.582;2023-01-08T05:58:38;13.07;;;4.78;;
59766;SDS011;46248;58.364;25.582;2023-01-08T06:02:00;12.30;;;3.35;;
59766;SDS011;46248;58.364;25.582;2023-01-08T06:05:21;8.27;;;3.83;;
59766;SDS011;46248;58.364;25.582;2023-01-08T06:08:45;8.18;;;4.15;;
59766;SDS011;46248;58.364;25.582;2023-01-08T06:12:07;7.03;;;4.32;;
59766;SDS011;46248;58.364;25.582;2023-01-08T06:15:29;9.55;;;4.25;;
59766;SDS011;46248;58.364;25.582;2023-01-08T06:18:51;9.65;;;4.20;;
59766;SDS011;46248;58.364;25.582;2023-01-08T06:22:12;9.55;;;4.22;;
59766;SDS011;46248;58.364;25.582;2023-01-08T06:25:36;8.13;;;4.00;;
59766;SDS011;46248;58.364;25.582;2023-01-08T06:28:58;12.15;;;4.15;;
59766;SDS011;46248;58.364;25.582;2023-01-08T06:32:20;9.45;;;3.50;;
59766;SDS011;46248;58.364;25.582;2023-01-08T06:35:41;8.63;;;4.03;;
59766;SDS011;46248;58.364;25.582;2023-01-08T06:39:04;7.43;;;3.63;;
59766;SDS011;46248;58.364;25.582;2023-01-08T06:42:27;10.13;;;4.82;;
59766;SDS011;46248;58.364;25.582;2023-01-08T06:45:52;13.52;;;4.50;;
59766;SDS011;46248;58.364;25.582;2023-01-08T06:49:17;10.30;;;5.20;;
59766;SDS011;46248;58.364;25.582;2023-01-08T06:52:39;9.73;;;4.60;;
59766;SDS011;46248;58.364;25.582;2023-01-08T06:56:01;9.30;;;4.47;;
59766;SDS011;46248;58.364;25.582;2023-01-08T06:59:27;8.52;;;3.58;;
59766;SDS011;46248;58.364;25.582;2023-01-08T07:02:49;10.88;;;4.63;;
59766;SDS011;46248;58.364;25.582;2023-01-08T07:06:13;19.50;;;7.45;;
59766;SDS011;46248;58.364;25.582;2023-01-08T07:09:36;14.93;;;6.28;;
59766;SDS011;46248;58.364;25.582;2023-01-08T07:12:57;11.00;;;4.35;;
59766;SDS011;46248;58.364;25.582;2023-01-08T07:16:21;12.77;;;4.32;;
59766;SDS011;46248;58.364;25.582;2023-01-08T07:19:43;14.75;;;4.72;;
59766;SDS011;46248;58.364;25.582;2023-01-08T07:23:06;10.27;;;4.45;;
59766;SDS011;46248;58.364;25.582;2023-01-08T07:26:30;9.68;;;4.07;;
59766;SDS011;46248;58.364;25.582;2023-01-08T07:29:53;13.38;;;4.03;;
59766;SDS011;46248;58.364;25.582;2023-01-08T07:33:16;12.05;;;5.15;;
59766;SDS011;46248;58.364;25.582;2023-01-08T07:36:38;9.80;;;4.07;;
59766;SDS011;46248;58.364;25.582;2023-01-08T07:40:00;9.02;;;4.05;;
59766;SDS011;46248;58.364;25.582;2023-01-08T07:43:22;14.10;;;5.13;;
59766;SDS011;46248;58.364;25.582;2023-01-08T07:46:44;7.13;;;3.78;;
59766;SDS011;46248;58.364;25.582;2023-01-08T07:50:08;12.27;;;5.30;;
59766;SDS011;46248;58.364;25.582;2023-01-08T07:53:30;10.68;;;4.68;;
59766;SDS011;46248;58.364;25.582;2023-01-08T07:56:52;9.20;;;5.28;;
59766;SDS011;46248;58.364;25.582;2023-01-08T08:00:14;13.05;;;4.78;;
59766;SDS011;46248;58.364;25.582;2023-01-08T08:03:36;9.73;;;4.65;;
59766;SDS011;46248;58.364;25.582;2023-01-08T08:07:00;10.38;;;5.32;;
59766;SDS011;46248;58.364;25.582;2023-01-08T08:10:22;10.18;;;4.22;;
59766;SDS011;46248;58.364;25.582;2023-01-08T08:13:44;20.70;;;13.32;;
59766;SDS011;46248;58.364;25.582;2023-01-08T08:17:06;22.00;;;14.55;;
59766;SDS011;46248;58.364;25.582;2023-01-08T08:20:28;12.63;;;5.85;;
59766;SDS011;46248;58.364;25.582;2023-01-08T08:23:51;21.40;;;13.45;;
59766;SDS011;46248;58.364;25.582;2023-01-08T08:27:15;12.05;;;5.20;;
59766;SDS011;46248;58.364;25.582;2023-01-08T08:30:38;13.38;;;8.25;;
59766;SDS011;46248;58.364;25.582;2023-01-08T08:34:01;14.55;;;6.65;;
59766;SDS011;46248;58.364;25.582;2023-01-08T08:37:23;12.13;;;4.90;;
59766;SDS011;46248;58.364;25.582;2023-01-08T08:40:46;9.68;;;5.82;;
59766;SDS011;46248;58.364;25.582;2023-01-08T08:44:09;15.88;;;4.97;;
59766;SDS011;46248;58.364;25.582;2023-01-08T08:47:30;10.27;;;6.00;;
59766;SDS011;46248;58.364;25.582;2023-01-08T08:50:52;10.20;;;7.35;;
59766;SDS011;46248;58.364;25.582;2023-01-08T08:54:14;15.65;;;4.65;;
59766;SDS011;46248;58.364;25.582;2023-01-08T08:57:38;20.98;;;6.40;;
59766;SDS011;46248;58.364;25.582;2023-01-08T09:01:00;12.65;;;5.20;;
59766;SDS011;46248;58.364;25.582;2023-01-08T09:04:23;14.95;;;7.22;;
59766;SDS011;46248;58.364;25.582;2023-01-08T09:07:45;12.93;;;6.00;;
59766;SDS011;46248;58.364;25.582;2023-01-08T09:11:07;15.25;;;9.85;;
59766;SDS011;46248;58.364;25.582;2023-01-08T09:14:30;10.57;;;4.10;;
59766;SDS011;46248;58.364;25.582;2023-01-08T09:17:52;11.48;;;4.80;;
59766;SDS011;46248;58.364;25.582;2023-01-08T09:21:15;13.35;;;6.00;;
59766;SDS011;46248;58.364;25.582;2023-01-08T09:24:37;12.73;;;5.90;;
59766;SDS011;46248;58.364;25.582;2023-01-08T09:27:58;12.73;;;5.75;;
59766;SDS011;46248;58.364;25.582;2023-01-08T09:31:22;16.10;;;6.25;;
59766;SDS011;46248;58.364;25.582;2023-01-08T09:34:44;12.23;;;5.60;;
59766;SDS011;46248;58.364;25.582;2023-01-08T09:38:06;10.82;;;5.75;;
59766;SDS011;46248;58.364;25.582;2023-01-08T09:41:29;10.95;;;5.65;;
59766;SDS011;46248;58.364;25.582;2023-01-08T09:44:54;13.73;;;7.38;;
59766;SDS011;46248;58.364;25.582;2023-01-08T09:48:21;17.88;;;5.80;;
59766;SDS011;46248;58.364;25.582;2023-01-08T09:51:46;11.05;;;5.93;;
59766;SDS011;46248;58.364;25.582;2023-01-08T09:55:09;21.92;;;10.70;;
59766;SDS011;46248;58.364;25.582;2023-01-08T09:58:36;13.95;;;5.10;;
59766;SDS011;46248;58.364;25.582;2023-01-08T10:02:00;20.13;;;10.05;;
59766;SDS011;46248;58.364;25.582;2023-01-08T10:05:24;12.48;;;5.35;;
59766;SDS011;46248;58.364;25.582;2023-01-08T10:08:48;12.77;;;5.70;;
59766;SDS011;46248;58.364;25.582;2023-01-08T10:12:10;12.27;;;6.00;;
59766;SDS011;46248;58.364;25.582;2023-01-08T10:15:33;9.57;;;4.57;;
59766;SDS011;46248;58.364;25.582;2023-01-08T10:18:55;12.15;;;5.28;;
59766;SDS011;46248;58.364;25.582;2023-01-08T10:22:19;11.13;;;5.20;;
59766;SDS011;46248;58.364;25.582;2023-01-08T10:25:46;8.18;;;4.10;;
59766;SDS011;46248;58.364;25.582;2023-01-08T10:29:11;11.63;;;5.75;;
59766;SDS011;46248;58.364;25.582;2023-01-08T10:32:35;11.52;;;5.72;;
59766;SDS011;46248;58.364;25.582;2023-01-08T10:35:58;10.75;;;5.00;;
59766;SDS011;46248;58.364;25.582;2023-01-08T10:39:24;9.88;;;5.57;;
59766;SDS011;46248;58.364;25.582;2023-01-08T10:42:48;13.45;;;5.70;;
59766;SDS011;46248;58.364;25.582;2023-01-08T10:46:12;11.82;;;4.93;;
59766;SDS011;46248;58.364;25.582;2023-01-08T10:49:41;12.55;;;5.50;;
59766;SDS011;46248;58.364;25.582;2023-01-08T10:53:17;12.98;;;5.78;;
59766;SDS011;46248;58.364;25.582;2023-01-08T10:56:45;12.57;;;4.60;;
59766;SDS011;46248;58.364;25.582;2023-01-08T11:00:20;11.02;;;5.38;;
59766;SDS011;46248;58.364;25.582;2023-01-08T11:03:47;10.13;;;5.53;;
59766;SDS011;46248;58.364;25.582;2023-01-08T11:07:14;12.13;;;5.47;;
59766;SDS011;46248;58.364;25.582;2023-01-08T11:10:40;19.13;;;6.80;;
59766;SDS011;46248;58.364;25.582;2023-01-08T11:14:05;9.55;;;5.88;;
59766;SDS011;46248;58.364;25.582;2023-01-08T11:17:35;13.80;;;5.80;;
59766;SDS011;46248;58.364;25.582;2023-01-08T11:21:05;16.17;;;6.25;;
59766;SDS011;46248;58.364;25.582;2023-01-08T11:24:30;15.85;;;6.80;;
59766;SDS011;46248;58.364;25.582;2023-01-08T11:27:54;17.55;;;7.80;;
59766;SDS011;46248;58.364;25.582;2023-01-08T11:31:22;11.88;;;5.85;;
59766;SDS011;46248;58.364;25.582;2023-01-08T11:34:55;11.48;;;5.05;;
59766;SDS011;46248;58.364;25.582;2023-01-08T11:38:19;11.32;;;5.13;;
59766;SDS011;46248;58.364;25.582;2023-01-08T11:41:44;10.65;;;6.03;;
59766;SDS011;46248;58.364;25.582;2023-01-08T11:45:24;8.70;;;5.30;;
59766;SDS011;46248;58.364;25.582;2023-01-08T11:48:58;19.65;;;7.28;;
59766;SDS011;46248;58.364;25.582;2023-01-08T11:52:42;8.43;;;5.32;;
59766;SDS011;46248;58.364;25.582;2023-01-08T11:56:26;15.55;;;7.13;;
59766;SDS011;46248;58.364;25.582;2023-01-08T12:00:02;25.23;;;10.32;;
59766;SDS011;46248;58.364;25.582;2023-01-08T12:03:36;19.13;;;10.15;;
59766;SDS011;46248;58.364;25.582;2023-01-08T12:07:05;13.98;;;5.68;;
59766;SDS011;46248;58.364;25.582;2023-01-08T12:10:36;14.45;;;5.88;;
59766;SDS011;46248;58.364;25.582;2023-01-08T12:14:12;10.55;;;5.78;;
59766;SDS011;46248;58.364;25.582;2023-01-08T12:17:54;10.68;;;4.97;;
59766;SDS011;46248;58.364;25.582;2023-01-08T12:21:26;11.23;;;5.40;;
59766;SDS011;46248;58.364;25.582;2023-01-08T12:29:14;9.60;;;5.30;;
59766;SDS011;46248;58.364;25.582;2023-01-08T12:32:48;14.13;;;5.65;;
59766;SDS011;46248;58.364;25.582;2023-01-08T12:36:15;9.95;;;4.88;;
59766;SDS011;46248;58.364;25.582;2023-01-08T12:39:51;7.30;;;4.30;;
59766;SDS011;46248;58.364;25.582;2023-01-08T12:43:23;16.77;;;6.18;;
59766;SDS011;46248;58.364;25.582;2023-01-08T12:46:49;10.93;;;4.30;;
59766;SDS011;46248;58.364;25.582;2023-01-08T12:50:20;11.30;;;5.80;;
59766;SDS011;46248;58.364;25.582;2023-01-08T12:53:48;14.57;;;6.63;;
59766;SDS011;46248;58.364;25.582;2023-01-08T12:57:18;9.85;;;6.05;;
59766;SDS011;46248;58.364;25.582;2023-01-08T13:00:53;11.85;;;5.95;;
59766;SDS011;46248;58.364;25.582;2023-01-08T13:04:21;15.18;;;5.68;;
59766;SDS011;46248;58.364;25.582;2023-01-08T13:07:43;10.05;;;5.45;;
59766;SDS011;46248;58.364;25.582;2023-01-08T13:11:06;13.95;;;6.35;;
59766;SDS011;46248;58.364;25.582;2023-01-08T13:14:38;13.27;;;5.82;;
59766;SDS011;46248;58.364;25.582;2023-01-08T13:18:06;11.30;;;5.75;;
59766;SDS011;46248;58.364;25.582;2023-01-08T13:21:36;14.80;;;6.63;;
59766;SDS011;46248;58.364;25.582;2023-01-08T13:25:09;13.30;;;5.05;;
59766;SDS011;46248;58.364;25.582;2023-01-08T13:28:47;11.48;;;5.10;;
59766;SDS011;46248;58.364;25.582;2023-01-08T13:32:21;13.07;;;5.53;;
59766;SDS011;46248;58.364;25.582;2023-01-08T13:39:53;13.50;;;4.95;;
59766;SDS011;46248;58.364;25.582;2023-01-08T13:43:16;16.65;;;6.70;;
59766;SDS011;46248;58.364;25.582;2023-01-08T13:46:40;12.18;;;5.63;;
59766;SDS011;46248;58.364;25.582;2023-01-08T13:50:04;17.55;;;6.32;;
59766;SDS011;46248;58.364;25.582;2023-01-08T13:53:36;16.23;;;6.20;;
59766;SDS011;46248;58.364;25.582;2023-01-08T13:57:01;15.32;;;5.68;;
59766;SDS011;46248;58.364;25.582;2023-01-08T14:00:27;15.32;;;6.68;;
59766;SDS011;46248;58.364;25.582;2023-01-08T14:03:51;13.48;;;5.72;;
59766;SDS011;46248;58.364;25.582;2023-01-08T14:07:13;16.80;;;6.75;;
59766;SDS011;46248;58.364;25.582;2023-01-08T14:10:36;14.32;;;6.35;;
59766;SDS011;46248;58.364;25.582;2023-01-08T14:13:58;14.30;;;5.50;;
59766;SDS011;46248;58.364;25.582;2023-01-08T14:17:21;12.93;;;5.57;;
59766;SDS011;46248;58.364;25.582;2023-01-08T14:20:47;16.65;;;7.15;;
59766;SDS011;46248;58.364;25.582;2023-01-08T14:24:11;18.58;;;7.22;;
59766;SDS011;46248;58.364;25.582;2023-01-08T14:27:38;15.45;;;6.57;;
59766;SDS011;46248;58.364;25.582;2023-01-08T14:31:00;14.90;;;6.13;;
59766;SDS011;46248;58.364;25.582;2023-01-08T14:34:22;15.68;;;5.35;;
59766;SDS011;46248;58.364;25.582;2023-01-08T14:37:47;13.02;;;6.05;;
59766;SDS011;46248;58.364;25.582;2023-01-08T14:41:10;15.13;;;6.78;;
59766;SDS011;46248;58.364;25.582;2023-01-08T14:44:35;17.98;;;5.95;;
59766;SDS011;46248;58.364;25.582;2023-01-08T14:48:07;21.65;;;6.43;;
59766;SDS011;46248;58.364;25.582;2023-01-08T14:51:33;17.95;;;6.82;;
59766;SDS011;46248;58.364;25.582;2023-01-08T14:54:56;13.20;;;5.82;;
59766;SDS011;46248;58.364;25.582;2023-01-08T14:58:21;12.55;;;6.22;;
59766;SDS011;46248;58.364;25.582;2023-01-08T15:01:50;11.48;;;6.10;;
59766;SDS011;46248;58.364;25.582;2023-01-08T15:05:16;13.93;;;7.05;;
59766;SDS011;46248;58.364;25.582;2023-01-08T15:08:40;18.38;;;7.75;;
59766;SDS011;46248;58.364;25.582;2023-01-08T15:12:04;17.13;;;7.35;;
59766;SDS011;46248;58.364;25.582;2023-01-08T15:15:27;24.33;;;10.05;;
59766;SDS011;46248;58.364;25.582;2023-01-08T15:18:54;11.65;;;6.15;;
59766;SDS011;46248;58.364;25.582;2023-01-08T15:22:22;21.23;;;8.93;;
59766;SDS011;46248;58.364;25.582;2023-01-08T15:25:46;19.83;;;7.47;;
59766;SDS011;46248;58.364;25.582;2023-01-08T15:29:12;20.40;;;8.00;;
59766;SDS011;46248;58.364;25.582;2023-01-08T15:32:39;16.27;;;6.10;;
59766;SDS011;46248;58.364;25.582;2023-01-08T15:36:02;15.20;;;6.95;;
59766;SDS011;46248;58.364;25.582;2023-01-08T15:39:26;23.65;;;8.07;;
59766;SDS011;46248;58.364;25.582;2023-01-08T15:42:48;16.33;;;7.10;;
59766;SDS011;46248;58.364;25.582;2023-01-08T15:46:27;19.45;;;9.88;;
59766;SDS011;46248;58.364;25.582;2023-01-08T15:49:49;28.38;;;11.77;;
59766;SDS011;46248;58.364;25.582;2023-01-08T15:53:18;24.60;;;8.05;;
59766;SDS011;46248;58.364;25.582;2023-01-08T15:56:42;25.00;;;10.18;;
59766;SDS011;46248;58.364;25.582;2023-01-08T16:00:05;23.55;;;10.00;;
59766;SDS011;46248;58.364;25.582;2023-01-08T16:03:27;19.60;;;8.85;;
59766;SDS011;46248;58.364;25.582;2023-01-08T16:06:50;23.60;;;9.90;;
59766;SDS011;46248;58.364;25.582;2023-01-08T16:10:13;18.38;;;8.10;;
59766;SDS011;46248;58.364;25.582;2023-01-08T16:13:36;22.40;;;8.75;;
59766;SDS011;46248;58.364;25.582;2023-01-08T16:16:58;25.70;;;7.45;;
59766;SDS011;46248;58.364;25.582;2023-01-08T16:20:21;18.10;;;7.93;;
59766;SDS011;46248;58.364;25.582;2023-01-08T16:23:43;21.20;;;8.30;;
59766;SDS011;46248;58.364;25.582;2023-01-08T16:27:06;21.80;;;9.40;;
59766;SDS011;46248;58.364;25.582;2023-01-08T16:30:29;16.80;;;8.45;;
59766;SDS011;46248;58.364;25.582;2023-01-08T16:33:50;17.15;;;8.18;;
59766;SDS011;46248;58.364;25.582;2023-01-08T16:37:12;19.70;;;8.18;;
59766;SDS011;46248;58.364;25.582;2023-01-08T16:40:35;18.80;;;7.35;;
59766;SDS011;46248;58.364;25.582;2023-01-08T16:43:58;24.60;;;7.88;;
59766;SDS011;46248;58.364;25.582;2023-01-08T16:47:20;18.75;;;8.23;;
59766;SDS011;46248;58.364;25.582;2023-01-08T16:50:43;17.77;;;7.70;;
59766;SDS011;46248;58.364;25.582;2023-01-08T16:54:06;18.88;;;7.28;;
59766;SDS011;46248;58.364;25.582;2023-01-08T16:57:28;20.83;;;8.75;;
59766;SDS011;46248;58.364;25.582;2023-01-08T17:00:51;17.75;;;7.25;;
59766;SDS011;46248;58.364;25.582;2023-01-08T17:04:13;19.38;;;7.38;;
59766;SDS011;46248;58.364;25.582;2023-01-08T17:07:35;27.88;;;9.98;;
59766;SDS011;46248;58.364;25.582;2023-01-08T17:10:57;16.45;;;7.35;;
59766;SDS011;46248;58.364;25.582;2023-01-08T17:14:18;19.13;;;8.30;;
59766;SDS011;46248;58.364;25.582;2023-01-08T17:17:41;24.52;;;8.57;;
59766;SDS011;46248;58.364;25.582;2023-01-08T17:21:04;17.50;;;7.38;;
59766;SDS011;46248;58.364;25.582;2023-01-08T17:24:26;18.00;;;8.02;;
59766;SDS011;46248;58.364;25.582;2023-01-08T17:27:48;20.45;;;8.07;;
59766;SDS011;46248;58.364;25.582;2023-01-08T17:31:13;33.22;;;18.52;;
59766;SDS011;46248;58.364;25.582;2023-01-08T17:34:38;18.08;;;7.82;;
59766;SDS011;46248;58.364;25.582;2023-01-08T17:38:00;21.08;;;8.07;;
59766;SDS011;46248;58.364;25.582;2023-01-08T17:41:22;19.02;;;8.02;;
59766;SDS011;46248;58.364;25.582;2023-01-08T17:45:01;16.23;;;7.63;;
59766;SDS011;46248;58.364;25.582;2023-01-08T17:48:25;17.77;;;7.63;;
59766;SDS011;46248;58.364;25.582;2023-01-08T17:51:48;19.70;;;7.45;;
59766;SDS011;46248;58.364;25.582;2023-01-08T17:55:20;16.33;;;7.63;;
59766;SDS011;46248;58.364;25.582;2023-01-08T17:58:42;18.92;;;9.60;;
59766;SDS011;46248;58.364;25.582;2023-01-08T18:02:04;18.35;;;7.18;;
59766;SDS011;46248;58.364;25.582;2023-01-08T18:05:27;21.90;;;7.95;;
59766;SDS011;46248;58.364;25.582;2023-01-08T18:08:50;26.10;;;12.40;;
59766;SDS011;46248;58.364;25.582;2023-01-08T18:12:12;16.92;;;6.80;;
59766;SDS011;46248;58.364;25.582;2023-01-08T18:15:34;15.68;;;7.65;;
59766;SDS011;46248;58.364;25.582;2023-01-08T18:18:56;16.55;;;7.05;;
59766;SDS011;46248;58.364;25.582;2023-01-08T18:22:18;15.52;;;7.13;;
59766;SDS011;46248;58.364;25.582;2023-01-08T18:25:41;15.32;;;8.00;;
59766;SDS011;46248;58.364;25.582;2023-01-08T18:29:03;17.20;;;7.93;;
59766;SDS011;46248;58.364;25.582;2023-01-08T18:32:25;17.33;;;6.55;;
59766;SDS011;46248;58.364;25.582;2023-01-08T18:35:47;18.92;;;7.43;;
59766;SDS011;46248;58.364;25.582;2023-01-08T18:39:09;19.08;;;8.20;;
59766;SDS011;46248;58.364;25.582;2023-01-08T18:42:33;19.77;;;8.95;;
59766;SDS011;46248;58.364;25.582;2023-01-08T18:45:56;22.05;;;7.57;;
59766;SDS011;46248;58.364;25.582;2023-01-08T18:49:19;17.92;;;7.40;;
59766;SDS011;46248;58.364;25.582;2023-01-08T18:52:42;14.38;;;7.15;;
59766;SDS011;46248;58.364;25.582;2023-01-08T18:56:04;17.27;;;8.20;;
59766;SDS011;46248;58.364;25.582;2023-01-08T18:59:28;22.65;;;9.73;;
59766;SDS011;46248;58.364;25.582;2023-01-08T19:02:50;27.30;;;11.18;;
59766;SDS011;46248;58.364;25.582;2023-01-08T19:06:13;20.90;;;8.73;;
59766;SDS011;46248;58.364;25.582;2023-01-08T19:09:37;18.42;;;7.45;;
59766;SDS011;46248;58.364;25.582;2023-01-08T19:12:58;18.58;;;7.70;;
59766;SDS011;46248;58.364;25.582;2023-01-08T19:16:22;19.70;;;7.82;;
59766;SDS011;46248;58.364;25.582;2023-01-08T19:19:44;20.15;;;7.38;;
59766;SDS011;46248;58.364;25.582;2023-01-08T19:23:06;20.50;;;7.88;;
59766;SDS011;46248;58.364;25.582;2023-01-08T19:26:28;22.90;;;7.55;;
59766;SDS011;46248;58.364;25.582;2023-01-08T19:29:50;20.02;;;7.55;;
59766;SDS011;46248;58.364;25.582;2023-01-08T19:33:14;15.85;;;7.35;;
59766;SDS011;46248;58.364;25.582;2023-01-08T19:36:36;19.38;;;7.72;;
59766;SDS011;46248;58.364;25.582;2023-01-08T19:39:58;17.95;;;7.45;;
59766;SDS011;46248;58.364;25.582;2023-01-08T19:43:22;18.40;;;7.13;;
59766;SDS011;46248;58.364;25.582;2023-01-08T19:47:04;15.27;;;7.18;;
59766;SDS011;46248;58.364;25.582;2023-01-08T19:50:40;20.35;;;7.55;;
59766;SDS011;46248;58.364;25.582;2023-01-08T19:54:02;19.38;;;8.10;;
59766;SDS011;46248;58.364;25.582;2023-01-08T19:57:25;20.85;;;8.60;;
59766;SDS011;46248;58.364;25.582;2023-01-08T20:00:47;18.38;;;6.22;;
59766;SDS011;46248;58.364;25.582;2023-01-08T20:04:09;17.33;;;7.43;;
59766;SDS011;46248;58.364;25.582;2023-01-08T20:07:33;18.05;;;7.47;;
59766;SDS011;46248;58.364;25.582;2023-01-08T20:10:55;10.07;;;6.35;;